Time;durP1;ratioP1;P1;durP2;ratioP2;P2;SDS_P1;SDS_P2;PMS_P1;PMS_P2;Temp;Humidity;BMP_temperature;BMP_pressure;BME280_temperature;BME280_humidity;BME280_pressure;Samples;Min_cycle;Max_cycle;Signal;HPM_P1;HPM_P2
2020/12/26 00:01:19;;;;;;;1.90;0.85;;;22.10;51.60;;;;;;5087156;28;20028;-63
2020/12/26 00:03:48;;;;;;;2.33;1.02;;;22.00;51.60;;;;;;5063293;28;20035;-65
2020/12/26 00:06:15;;;;;;;1.90;1.00;;;22.00;51.60;;;;;;5080408;28;20032;-65
2020/12/26 00:08:42;;;;;;;2.30;1.00;;;22.00;51.60;;;;;;5070633;28;20028;-63
2020/12/26 00:11:09;;;;;;;1.98;0.90;;;22.00;51.60;;;;;;5088678;28;20137;-65
2020/12/26 00:13:35;;;;;;;2.28;0.90;;;21.90;51.60;;;;;;5087099;28;20035;-64
2020/12/26 00:16:05;;;;;;;2.50;1.10;;;22.00;51.70;;;;;;5070075;28;20119;-65
2020/12/26 00:18:30;;;;;;;2.35;1.05;;;21.90;51.70;;;;;;5085806;28;20020;-63
2020/12/26 00:20:56;;;;;;;2.00;1.00;;;21.90;51.80;;;;;;5067326;28;20824;-63
2020/12/26 00:23:21;;;;;;;3.10;0.98;;;21.80;51.70;;;;;;5090386;28;20032;-63
2020/12/26 00:25:47;;;;;;;4.20;1.10;;;21.80;52.30;;;;;;5088081;28;20032;-64
2020/12/26 00:28:12;;;;;;;1.75;0.80;;;21.80;51.80;;;;;;5087423;28;20081;-65
2020/12/26 00:30:38;;;;;;;3.95;0.90;;;21.80;51.90;;;;;;5068060;28;20154;-63
2020/12/26 00:33:04;;;;;;;1.08;0.70;;;21.80;52.00;;;;;;5084447;28;20453;-62
2020/12/26 00:35:29;;;;;;;3.05;0.90;;;21.80;51.90;;;;;;5083735;28;20466;-64
2020/12/26 00:37:55;;;;;;;2.03;0.90;;;21.80;52.00;;;;;;5079999;28;20120;-63
2020/12/26 00:40:21;;;;;;;1.85;0.90;;;21.70;51.90;;;;;;5087733;28;20077;-65
2020/12/26 00:42:46;;;;;;;1.67;0.90;;;21.70;52.00;;;;;;5068484;28;20089;-65
2020/12/26 00:45:12;;;;;;;1.20;0.80;;;21.70;52.00;;;;;;5087645;28;20028;-64
2020/12/26 00:47:37;;;;;;;1.27;0.80;;;21.70;52.00;;;;;;5088167;28;20914;-66
2020/12/26 00:50:03;;;;;;;1.33;0.75;;;21.60;52.00;;;;;;5086390;28;20059;-63
2020/12/26 00:52:29;;;;;;;2.42;0.82;;;21.60;52.00;;;;;;5070442;28;20024;-65
2020/12/26 00:54:55;;;;;;;1.55;0.90;;;21.60;52.10;;;;;;5087429;28;20521;-64
2020/12/26 00:57:21;;;;;;;1.27;0.70;;;21.60;52.10;;;;;;5086858;28;20020;-64
2020/12/26 00:59:46;;;;;;;1.23;0.80;;;21.60;52.10;;;;;;5086933;28;20040;-63
2020/12/26 01:02:12;;;;;;;1.33;0.90;;;21.60;52.10;;;;;;5078178;28;20036;-66
2020/12/26 01:04:38;;;;;;;1.65;1.00;;;21.50;52.10;;;;;;5068462;28;20055;-65
2020/12/26 01:07:03;;;;;;;1.17;0.80;;;21.50;52.10;;;;;;5086800;28;20106;-63
2020/12/26 01:09:29;;;;;;;2.13;0.80;;;21.50;52.30;;;;;;5074598;28;20024;-63
2020/12/26 01:11:54;;;;;;;1.48;0.80;;;21.50;52.20;;;;;;5084233;28;20037;-65
2020/12/26 01:14:20;;;;;;;0.82;0.65;;;21.50;52.20;;;;;;5084110;28;20462;-63
2020/12/26 01:16:50;;;;;;;0.77;0.60;;;21.50;52.20;;;;;;5084249;28;20024;-63
2020/12/26 01:19:19;;;;;;;1.13;0.70;;;21.50;52.20;;;;;;5085371;28;20107;-63
2020/12/26 01:21:52;;;;;;;1.45;0.70;;;21.40;52.20;;;;;;5063092;28;20081;-67
2020/12/26 01:24:21;;;;;;;1.05;0.70;;;21.50;52.20;;;;;;5077371;28;20339;-65
2020/12/26 01:26:51;;;;;;;2.75;0.90;;;21.40;52.20;;;;;;5085520;28;20678;-64
2020/12/26 01:29:18;;;;;;;1.55;0.60;;;21.40;52.20;;;;;;5085653;28;20036;-64
2020/12/26 01:31:48;;;;;;;0.98;0.60;;;21.40;52.30;;;;;;5067888;28;20035;-63
2020/12/26 01:34:14;;;;;;;1.40;0.70;;;21.40;52.40;;;;;;5068182;28;20055;-66
2020/12/26 01:36:40;;;;;;;1.23;0.70;;;21.40;52.40;;;;;;5084546;28;20032;-63
2020/12/26 01:39:05;;;;;;;1.25;0.70;;;21.40;52.40;;;;;;5070741;28;20024;-62
2020/12/26 01:41:31;;;;;;;1.20;0.63;;;21.30;52.40;;;;;;5094755;28;20383;-63
2020/12/26 01:43:58;;;;;;;1.55;0.80;;;21.30;52.30;;;;;;5084843;28;20123;-63
2020/12/26 01:46:28;;;;;;;1.10;0.70;;;21.30;52.30;;;;;;5066838;28;20101;-63
2020/12/26 01:48:55;;;;;;;1.10;0.60;;;21.30;52.40;;;;;;5092499;28;20028;-62
2020/12/26 01:51:23;;;;;;;1.40;0.68;;;21.30;52.30;;;;;;5060814;28;20508;-63
2020/12/26 01:53:49;;;;;;;0.77;0.57;;;21.30;52.30;;;;;;5068708;28;20094;-64
2020/12/26 01:56:16;;;;;;;0.65;0.65;;;21.20;52.40;;;;;;5084993;28;20126;-66
2020/12/26 01:58:44;;;;;;;0.63;0.60;;;21.20;52.30;;;;;;5088451;28;20111;-62
2020/12/26 02:01:10;;;;;;;0.68;0.60;;;21.20;52.20;;;;;;5084749;28;20372;-63
2020/12/26 02:03:42;;;;;;;0.82;0.65;;;21.20;52.20;;;;;;5087338;28;20027;-63
2020/12/26 02:06:08;;;;;;;1.02;0.70;;;21.20;52.20;;;;;;5095445;28;20051;-63
2020/12/26 02:08:35;;;;;;;1.05;0.70;;;21.20;52.20;;;;;;5067833;28;20039;-62
2020/12/26 02:11:04;;;;;;;1.63;0.77;;;21.10;52.10;;;;;;5088681;28;20059;-64
2020/12/26 02:13:29;;;;;;;1.38;0.70;;;21.10;52.10;;;;;;5083979;28;20466;-62
2020/12/26 02:16:05;;;;;;;1.20;0.70;;;21.10;52.10;;;;;;5087184;28;20020;-63
2020/12/26 02:18:32;;;;;;;1.40;0.70;;;21.10;52.10;;;;;;5065357;28;20111;-64
2020/12/26 02:20:59;;;;;;;0.65;0.60;;;21.10;52.10;;;;;;5088719;28;20031;-63
2020/12/26 02:23:26;;;;;;;1.05;0.50;;;21.10;52.10;;;;;;5088412;28;20496;-64
2020/12/26 02:25:57;;;;;;;1.42;0.90;;;21.00;52.00;;;;;;5088104;28;20136;-63
2020/12/26 02:28:23;;;;;;;1.23;0.70;;;21.00;52.00;;;;;;5079952;28;20028;-63
2020/12/26 02:30:50;;;;;;;1.17;0.70;;;21.00;52.00;;;;;;5086249;28;20132;-65
2020/12/26 02:33:16;;;;;;;1.42;0.70;;;21.00;52.00;;;;;;5086673;28;20476;-63
2020/12/26 02:35:48;;;;;;;1.23;0.70;;;21.00;52.00;;;;;;5086151;28;20115;-63
2020/12/26 02:38:15;;;;;;;1.10;0.60;;;21.00;52.00;;;;;;5086990;28;20034;-65
2020/12/26 02:40:41;;;;;;;1.00;0.60;;;21.00;52.00;;;;;;5066240;28;20035;-63
2020/12/26 02:43:17;;;;;;;2.30;0.70;;;20.90;52.00;;;;;;5087386;28;20028;-62
2020/12/26 02:45:43;;;;;;;1.08;0.70;;;20.90;52.00;;;;;;5086475;28;20051;-63
2020/12/26 02:48:08;;;;;;;1.95;0.70;;;20.90;51.90;;;;;;5068887;28;20051;-64
2020/12/26 02:50:34;;;;;;;1.48;0.60;;;20.90;52.00;;;;;;5085791;28;20028;-64
2020/12/26 02:52:59;;;;;;;1.27;0.75;;;20.90;52.00;;;;;;5084363;28;20082;-63
2020/12/26 02:55:25;;;;;;;0.98;0.60;;;20.90;52.00;;;;;;5089001;28;20024;-63
2020/12/26 02:57:51;;;;;;;1.25;0.73;;;20.90;52.00;;;;;;5071642;28;20859;-63
2020/12/26 03:00:17;;;;;;;1.20;0.60;;;20.90;51.90;;;;;;5099684;28;20023;-63
2020/12/26 03:02:43;;;;;;;0.77;0.70;;;20.80;51.90;;;;;;5092843;28;20562;-64
2020/12/26 03:05:09;;;;;;;2.78;0.70;;;20.80;51.90;;;;;;5069223;28;20032;-64
2020/12/26 03:07:34;;;;;;;0.65;0.60;;;20.80;51.80;;;;;;5089937;28;20036;-62
2020/12/26 03:10:00;;;;;;;0.90;0.60;;;20.80;51.90;;;;;;5093988;28;20092;-64
2020/12/26 03:12:25;;;;;;;0.85;0.60;;;20.80;51.90;;;;;;5092482;28;20465;-63
2020/12/26 03:14:51;;;;;;;1.60;0.73;;;20.80;51.80;;;;;;5090083;28;20039;-65
2020/12/26 03:17:16;;;;;;;1.05;0.57;;;20.80;51.80;;;;;;5088026;28;20040;-65
2020/12/26 03:19:42;;;;;;;0.85;0.60;;;20.80;51.90;;;;;;5087311;28;20047;-66
2020/12/26 03:22:07;;;;;;;0.93;0.60;;;20.80;51.90;;;;;;5092447;28;20054;-64
2020/12/26 03:24:33;;;;;;;1.25;0.70;;;20.70;51.80;;;;;;5091244;28;20023;-63
2020/12/26 03:26:59;;;;;;;0.88;0.50;;;20.70;51.80;;;;;;5091083;28;20559;-62
2020/12/26 03:29:24;;;;;;;0.98;0.60;;;20.70;51.80;;;;;;5069707;28;20055;-62
2020/12/26 03:31:50;;;;;;;0.98;0.70;;;20.70;51.80;;;;;;5089291;28;20031;-64
2020/12/26 03:34:15;;;;;;;0.80;0.60;;;20.70;51.80;;;;;;5092212;28;20024;-62
2020/12/26 03:36:41;;;;;;;0.77;0.50;;;20.70;51.80;;;;;;5071184;28;20020;-62
2020/12/26 03:39:07;;;;;;;0.52;0.50;;;20.70;51.80;;;;;;5084594;28;20027;-63
2020/12/26 03:41:32;;;;;;;0.63;0.50;;;20.60;52.00;;;;;;5094303;28;20046;-65
2020/12/26 03:43:58;;;;;;;0.98;0.70;;;20.60;51.70;;;;;;5092146;28;20093;-62
2020/12/26 03:46:23;;;;;;;0.63;0.57;;;20.60;51.70;;;;;;5089893;28;20024;-63
2020/12/26 03:48:49;;;;;;;1.30;0.80;;;20.60;51.70;;;;;;5089971;28;20093;-63
2020/12/26 03:51:15;;;;;;;0.57;0.50;;;20.60;51.70;;;;;;5087696;28;20016;-63
2020/12/26 03:53:40;;;;;;;0.88;0.65;;;20.60;51.70;;;;;;5088257;28;20144;-63
2020/12/26 03:56:07;;;;;;;0.50;0.50;;;20.60;51.70;;;;;;5091135;28;20042;-64
2020/12/26 03:58:33;;;;;;;0.95;0.65;;;20.60;51.70;;;;;;5092863;28;20034;-64
2020/12/26 04:00:59;;;;;;;0.63;0.60;;;20.60;51.80;;;;;;5068928;28;20103;-64
2020/12/26 04:03:25;;;;;;;0.63;0.50;;;20.60;51.70;;;;;;5098720;28;20026;-63
2020/12/26 04:05:50;;;;;;;0.50;0.40;;;20.60;51.80;;;;;;5088169;28;20462;-64
2020/12/26 04:08:16;;;;;;;1.50;0.70;;;20.60;51.80;;;;;;5070984;28;20024;-62
2020/12/26 04:10:42;;;;;;;0.88;0.57;;;20.60;51.80;;;;;;5072400;28;20032;-62
2020/12/26 04:13:08;;;;;;;0.40;0.40;;;20.50;51.80;;;;;;5092448;28;20028;-65
2020/12/26 04:15:33;;;;;;;0.77;0.60;;;20.50;51.70;;;;;;5094084;28;20024;-63
2020/12/26 04:17:59;;;;;;;0.80;0.60;;;20.50;51.80;;;;;;5087556;28;20123;-62
2020/12/26 04:20:25;;;;;;;0.98;0.60;;;20.50;51.80;;;;;;5089264;28;20096;-64
2020/12/26 04:22:50;;;;;;;0.63;0.50;;;20.50;51.80;;;;;;5091555;28;20028;-63
2020/12/26 04:25:17;;;;;;;1.10;0.63;;;20.50;51.80;;;;;;5088145;28;20024;-62
2020/12/26 04:27:43;;;;;;;0.88;0.60;;;20.50;51.80;;;;;;5096708;28;20112;-64
2020/12/26 04:30:08;;;;;;;1.02;0.60;;;20.50;51.80;;;;;;5072246;28;20035;-63
2020/12/26 04:32:34;;;;;;;1.08;0.60;;;20.50;51.90;;;;;;5088227;28;20415;-64
2020/12/26 04:35:00;;;;;;;0.82;0.50;;;20.50;51.80;;;;;;5100836;28;20040;-64
2020/12/26 04:37:25;;;;;;;0.63;0.50;;;20.40;51.80;;;;;;5087153;28;20024;-63
2020/12/26 04:39:51;;;;;;;0.73;0.50;;;20.40;51.90;;;;;;5086243;28;20557;-64
2020/12/26 04:42:18;;;;;;;0.50;0.50;;;20.40;51.80;;;;;;5091970;28;20072;-63
2020/12/26 04:44:43;;;;;;;0.77;0.68;;;20.40;51.80;;;;;;5083692;28;20093;-64
2020/12/26 04:47:13;;;;;;;0.63;0.50;;;20.40;51.80;;;;;;5087275;28;20028;-64
2020/12/26 04:49:39;;;;;;;0.60;0.40;;;20.40;51.90;;;;;;5087374;28;20438;-64
2020/12/26 04:52:08;;;;;;;0.57;0.50;;;20.40;51.80;;;;;;5094387;28;20517;-62
2020/12/26 04:54:43;;;;;;;0.90;0.60;;;20.40;51.90;;;;;;5086129;28;20103;-65
2020/12/26 04:57:10;;;;;;;0.38;0.38;;;20.40;51.90;;;;;;5083442;28;20109;-63
2020/12/26 04:59:36;;;;;;;0.80;0.50;;;20.40;51.90;;;;;;5088978;28;20725;-62
2020/12/26 05:02:13;;;;;;;0.73;0.60;;;20.40;52.00;;;;;;5085925;28;20024;-62
2020/12/26 05:04:39;;;;;;;1.25;0.70;;;20.40;52.00;;;;;;5077719;28;20032;-63
2020/12/26 05:07:05;;;;;;;0.80;0.57;;;20.30;51.90;;;;;;5088315;28;20101;-63
2020/12/26 05:09:30;;;;;;;1.02;0.50;;;20.30;51.90;;;;;;5089311;28;20046;-62
2020/12/26 05:12:01;;;;;;;0.75;0.45;;;20.30;51.90;;;;;;5090699;28;20123;-62
2020/12/26 05:14:31;;;;;;;0.57;0.45;;;20.40;52.10;;;;;;5088361;28;20024;-64
2020/12/26 05:16:57;;;;;;;0.98;0.50;;;20.30;52.00;;;;;;5067893;28;20043;-64
2020/12/26 05:19:23;;;;;;;0.77;0.57;;;20.30;52.00;;;;;;5088492;28;20105;-63
2020/12/26 05:21:53;;;;;;;0.45;0.40;;;20.30;52.00;;;;;;5088819;28;20016;-64
2020/12/26 05:24:19;;;;;;;0.40;0.40;;;20.30;52.50;;;;;;5086297;28;20056;-63
2020/12/26 05:26:46;;;;;;;0.68;0.60;;;20.30;52.00;;;;;;5086783;28;20058;-65
2020/12/26 05:29:13;;;;;;;0.60;0.50;;;20.30;52.00;;;;;;5073386;28;20046;-63
2020/12/26 05:31:55;;;;;;;0.52;0.50;;;20.30;52.00;;;;;;5090291;28;20069;-63
2020/12/26 05:34:39;;;;;;;0.47;0.47;;;20.30;52.00;;;;;;5089259;28;20442;-64
2020/12/26 05:37:06;;;;;;;0.90;0.50;;;20.20;52.00;;;;;;5065591;28;20039;-63
2020/12/26 05:39:34;;;;;;;0.50;0.50;;;20.30;52.00;;;;;;5069804;28;20478;-63
2020/12/26 05:42:00;;;;;;;0.50;0.50;;;20.20;52.00;;;;;;5085565;28;20094;-63
2020/12/26 05:44:30;;;;;;;0.57;0.50;;;20.20;52.00;;;;;;5087589;28;20028;-64
2020/12/26 05:46:59;;;;;;;0.40;0.40;;;20.20;52.00;;;;;;5086894;28;20774;-63
2020/12/26 05:49:33;;;;;;;0.77;0.57;;;20.20;52.00;;;;;;5088957;28;20024;-64
2020/12/26 05:52:17;;;;;;;0.88;0.50;;;20.20;52.00;;;;;;5073216;28;20028;-63
2020/12/26 05:54:51;;;;;;;0.40;0.40;;;20.20;52.50;;;;;;5088479;28;20043;-63
2020/12/26 05:57:17;;;;;;;0.60;0.50;;;20.20;52.00;;;;;;5086821;28;20026;-64
2020/12/26 05:59:48;;;;;;;0.77;0.50;;;20.20;52.00;;;;;;5086988;28;20042;-63
2020/12/26 06:02:25;;;;;;;0.50;0.50;;;20.20;52.00;;;;;;5086345;28;20096;-63
2020/12/26 06:04:52;;;;;;;0.52;0.50;;;20.10;52.00;;;;;;5087988;28;20024;-63
2020/12/26 06:07:26;;;;;;;0.50;0.50;;;20.10;51.90;;;;;;5084397;28;20050;-64
2020/12/26 06:09:54;;;;;;;0.50;0.50;;;20.20;52.00;;;;;;5086443;28;20039;-63
2020/12/26 06:12:21;;;;;;;0.57;0.50;;;20.10;51.90;;;;;;5088173;28;20352;-63
2020/12/26 06:14:48;;;;;;;0.40;0.40;;;20.10;52.00;;;;;;5085292;28;20012;-63
2020/12/26 06:17:23;;;;;;;0.63;0.50;;;20.10;52.00;;;;;;5091876;28;20496;-65
2020/12/26 06:20:06;;;;;;;0.45;0.40;;;20.10;52.00;;;;;;5085109;28;20410;-65
2020/12/26 06:22:49;;;;;;;0.40;0.40;;;20.10;52.00;;;;;;5080654;28;20042;-62
2020/12/26 06:25:22;;;;;;;1.10;0.47;;;20.10;52.00;;;;;;5087644;28;20363;-63
2020/12/26 06:28:08;;;;;;;0.40;0.40;;;20.10;52.00;;;;;;5068241;28;20032;-63
2020/12/26 06:30:38;;;;;;;0.45;0.40;;;20.10;52.00;;;;;;5079664;28;20153;-62
2020/12/26 06:33:07;;;;;;;0.38;0.38;;;20.10;52.00;;;;;;5082129;28;20028;-63
2020/12/26 06:35:32;;;;;;;0.50;0.50;;;20.10;52.00;;;;;;5072090;28;20028;-63
2020/12/26 06:38:12;;;;;;;0.50;0.40;;;20.10;52.00;;;;;;5087459;28;20493;-64
2020/12/26 06:40:49;;;;;;;0.70;0.50;;;20.10;52.00;;;;;;5088196;28;20426;-62
2020/12/26 06:43:53;;;;;;;0.68;0.50;;;20.10;52.00;;;;;;5067421;28;20047;-62
2020/12/26 06:46:22;;;;;;;0.55;0.40;;;20.10;52.00;;;;;;5082788;28;20585;-63
2020/12/26 06:48:52;;;;;;;0.40;0.40;;;20.10;52.00;;;;;;5067888;28;20024;-62
2020/12/26 06:51:34;;;;;;;1.38;0.43;;;20.10;52.00;;;;;;5072639;28;20021;-63
2020/12/26 06:54:01;;;;;;;0.47;0.47;;;20.00;52.00;;;;;;5073229;28;20024;-64
2020/12/26 06:58:59;;;;;;;0.73;0.50;;;20.00;52.00;;;;;;5079503;28;20050;-63
2020/12/26 07:01:26;;;;;;;0.35;0.35;;;20.00;52.00;;;;;;5077363;28;20041;-62
2020/12/26 07:04:14;;;;;;;0.45;0.40;;;20.00;52.00;;;;;;5082825;28;20038;-63
2020/12/26 07:06:46;;;;;;;0.35;0.35;;;20.00;52.00;;;;;;5083126;28;20055;-64
2020/12/26 07:09:17;;;;;;;0.85;0.60;;;20.00;52.00;;;;;;5086222;28;20105;-64
2020/12/26 07:11:51;;;;;;;0.70;0.50;;;20.00;52.00;;;;;;5083277;28;20063;-63
2020/12/26 07:14:50;;;;;;;0.50;0.50;;;20.00;52.00;;;;;;5079421;28;20107;-65
2020/12/26 07:17:23;;;;;;;0.95;0.60;;;20.00;52.00;;;;;;5067867;28;20036;-64
2020/12/26 07:19:51;;;;;;;0.60;0.50;;;20.00;52.10;;;;;;5068635;28;20039;-62
2020/12/26 07:22:21;;;;;;;0.63;0.50;;;20.00;52.00;;;;;;5069278;28;20039;-63
2020/12/26 07:25:08;;;;;;;0.55;0.50;;;20.00;52.00;;;;;;5085332;28;20056;-65
2020/12/26 07:27:38;;;;;;;0.47;0.47;;;20.00;52.00;;;;;;5072449;28;20456;-66
2020/12/26 07:30:07;;;;;;;;;;;20.00;52.10;;;;;;5070005;28;20028;-64
2020/12/26 07:32:39;;;;;;;0.50;0.50;;;19.90;52.00;;;;;;5067906;28;19916;-65
2020/12/26 07:35:19;;;;;;;0.43;0.40;;;20.00;52.60;;;;;;5067420;28;20111;-64
2020/12/26 07:37:52;;;;;;;0.50;0.50;;;19.90;52.00;;;;;;5067484;28;20031;-62
2020/12/26 07:40:19;;;;;;;0.63;0.50;;;19.90;52.10;;;;;;5069011;28;20451;-62
2020/12/26 07:42:45;;;;;;;0.43;0.43;;;19.90;52.00;;;;;;5074455;28;20155;-62
2020/12/26 07:45:12;;;;;;;0.55;0.40;;;19.90;52.00;;;;;;5071419;28;20106;-62
2020/12/26 07:47:42;;;;;;;0.60;0.60;;;19.90;52.10;;;;;;5064988;28;20020;-63
2020/12/26 07:50:08;;;;;;;0.60;0.40;;;19.90;52.10;;;;;;5047072;28;20036;-63
2020/12/26 07:52:34;;;;;;;0.40;0.40;;;19.90;52.10;;;;;;5074155;28;20051;-63
2020/12/26 07:55:00;;;;;;;0.40;0.40;;;19.90;52.10;;;;;;5043858;28;20060;-63
2020/12/26 07:57:27;;;;;;;0.35;0.35;;;19.90;52.10;;;;;;5059429;28;20916;-63
2020/12/26 07:59:54;;;;;;;0.55;0.47;;;19.90;52.10;;;;;;5048960;28;20072;-63
2020/12/26 08:02:19;;;;;;;0.60;0.50;;;19.90;52.10;;;;;;5071609;28;20036;-63
2020/12/26 08:04:46;;;;;;;0.43;0.40;;;19.90;52.10;;;;;;5075595;28;20028;-65
2020/12/26 08:07:13;;;;;;;0.88;0.60;;;19.90;52.10;;;;;;5074886;28;20530;-63
2020/12/26 08:09:46;;;;;;;0.50;0.50;;;19.90;52.10;;;;;;5082186;28;20040;-63
2020/12/26 08:12:12;;;;;;;0.50;0.40;;;19.90;52.10;;;;;;5070294;28;20658;-64
2020/12/26 08:14:38;;;;;;;0.43;0.40;;;19.90;52.10;;;;;;5066668;28;20096;-63
2020/12/26 08:17:04;;;;;;;0.30;0.30;;;19.90;52.10;;;;;;5066656;28;20312;-64
2020/12/26 08:19:30;;;;;;;0.30;0.30;;;19.90;52.10;;;;;;5063842;28;20021;-62
2020/12/26 08:21:59;;;;;;;0.70;0.60;;;19.90;52.10;;;;;;5045487;28;20032;-62
2020/12/26 08:24:25;;;;;;;0.43;0.40;;;19.90;52.10;;;;;;5063436;28;20032;-63
2020/12/26 08:26:53;;;;;;;0.85;0.50;;;19.90;52.10;;;;;;5059518;28;20024;-64
2020/12/26 08:29:28;;;;;;;0.45;0.45;;;19.90;52.20;;;;;;5055347;28;20477;-64
2020/12/26 08:32:06;;;;;;;0.40;0.40;;;19.90;52.10;;;;;;5061006;28;20032;-63
2020/12/26 08:34:41;;;;;;;0.75;0.50;;;19.90;52.10;;;;;;5060496;28;20029;-62
2020/12/26 08:37:17;;;;;;;0.55;0.50;;;19.90;52.20;;;;;;5065650;28;20032;-64
2020/12/26 08:39:44;;;;;;;0.50;0.47;;;19.90;52.20;;;;;;5076581;28;20035;-62
2020/12/26 08:42:18;;;;;;;0.50;0.40;;;19.90;52.20;;;;;;5083238;28;20115;-66
2020/12/26 08:44:43;;;;;;;0.77;0.47;;;19.90;52.20;;;;;;5086274;28;20146;-63
2020/12/26 08:47:10;;;;;;;0.50;0.50;;;19.90;52.20;;;;;;5080379;28;20120;-64
2020/12/26 08:49:43;;;;;;;0.98;0.52;;;19.90;52.20;;;;;;5082639;28;20024;-62
2020/12/26 08:52:09;;;;;;;0.82;0.50;;;19.90;52.20;;;;;;5060868;28;20044;-64
2020/12/26 08:54:34;;;;;;;0.45;0.45;;;19.80;52.10;;;;;;5078637;28;20044;-63
2020/12/26 08:57:00;;;;;;;1.27;0.60;;;19.80;52.10;;;;;;5080159;28;20086;-63
2020/12/26 08:59:27;;;;;;;0.82;0.50;;;19.80;52.10;;;;;;5087561;28;20810;-63
2020/12/26 09:01:54;;;;;;;0.60;0.50;;;19.90;52.10;;;;;;5075492;28;20036;-63
2020/12/26 09:04:20;;;;;;;0.40;0.40;;;19.80;52.10;;;;;;5081476;28;20028;-62
2020/12/26 09:06:46;;;;;;;0.55;0.50;;;19.80;52.10;;;;;;5088048;28;20785;-62
2020/12/26 09:09:18;;;;;;;0.82;0.50;;;19.80;52.00;;;;;;5095861;28;20434;-63
2020/12/26 09:11:45;;;;;;;0.50;0.50;;;19.80;52.00;;;;;;5088029;28;20031;-63
2020/12/26 09:14:17;;;;;;;0.68;0.50;;;19.80;52.00;;;;;;5081457;28;20622;-65
2020/12/26 09:16:43;;;;;;;0.88;0.57;;;19.80;52.00;;;;;;5082610;28;20028;-63
2020/12/26 09:19:09;;;;;;;0.63;0.50;;;19.80;52.00;;;;;;5075642;28;20039;-64
2020/12/26 09:21:34;;;;;;;1.10;0.60;;;19.80;52.10;;;;;;5087696;28;20059;-62
2020/12/26 09:24:00;;;;;;;1.00;0.47;;;19.80;52.00;;;;;;5087811;28;20113;-63
2020/12/26 09:26:34;;;;;;;1.33;0.60;;;19.80;52.00;;;;;;5086507;28;20134;-63
2020/12/26 09:29:03;;;;;;;0.65;0.60;;;19.80;52.00;;;;;;5089805;28;20064;-62
2020/12/26 09:31:31;;;;;;;0.60;0.60;;;19.80;52.10;;;;;;5087336;28;20104;-62
2020/12/26 09:34:01;;;;;;;1.42;0.60;;;19.80;52.10;;;;;;5090884;28;20012;-62
2020/12/26 09:36:28;;;;;;;0.68;0.63;;;19.80;52.10;;;;;;5089357;28;20101;-64
2020/12/26 09:38:54;;;;;;;0.70;0.60;;;19.80;52.10;;;;;;5087211;28;20071;-62
2020/12/26 09:41:24;;;;;;;0.77;0.60;;;19.80;52.10;;;;;;5086292;28;20095;-64
2020/12/26 09:43:52;;;;;;;2.05;0.60;;;19.90;52.20;;;;;;5089838;28;20024;-62
2020/12/26 09:46:18;;;;;;;0.95;0.70;;;19.90;52.20;;;;;;5088557;28;20046;-64
2020/12/26 09:48:48;;;;;;;0.85;0.60;;;19.90;52.20;;;;;;5086774;28;20366;-65
2020/12/26 09:51:19;;;;;;;1.17;0.60;;;19.90;52.20;;;;;;5086799;28;20055;-63
2020/12/26 09:53:45;;;;;;;1.10;0.52;;;19.90;52.30;;;;;;5090641;28;20395;-64
2020/12/26 09:56:11;;;;;;;1.02;0.70;;;19.80;52.20;;;;;;5089139;28;20088;-62
2020/12/26 09:58:38;;;;;;;2.25;0.93;;;19.90;52.30;;;;;;5091218;28;20537;-64
2020/12/26 10:01:05;;;;;;;2.20;0.75;;;19.90;52.30;;;;;;5086812;28;20080;-63
2020/12/26 10:03:31;;;;;;;0.88;0.60;;;19.90;52.40;;;;;;5089999;28;20027;-65
2020/12/26 10:05:57;;;;;;;2.35;0.70;;;19.90;52.40;;;;;;5090429;28;20035;-64
2020/12/26 10:08:23;;;;;;;1.80;0.60;;;19.90;52.40;;;;;;5073247;28;20023;-63
2020/12/26 10:10:48;;;;;;;1.45;0.80;;;19.90;52.40;;;;;;5087988;28;20063;-63
2020/12/26 10:13:14;;;;;;;1.52;0.85;;;19.90;52.40;;;;;;5086979;28;20024;-63
2020/12/26 10:15:39;;;;;;;1.65;0.80;;;19.90;52.50;;;;;;5087806;28;20020;-64
2020/12/26 10:18:05;;;;;;;1.55;0.90;;;19.90;52.50;;;;;;5084618;28;20027;-62
2020/12/26 10:20:31;;;;;;;1.73;0.90;;;20.00;52.60;;;;;;5084519;28;20051;-64
2020/12/26 10:22:56;;;;;;;2.13;0.80;;;19.90;52.50;;;;;;5088509;28;20063;-63
2020/12/26 10:25:24;;;;;;;2.40;0.75;;;20.00;52.60;;;;;;5085510;28;20111;-62
2020/12/26 10:27:51;;;;;;;1.27;0.70;;;19.90;52.60;;;;;;5084308;28;20187;-64
2020/12/26 10:30:17;;;;;;;1.13;0.80;;;19.90;52.60;;;;;;5048476;28;20390;-64
2020/12/26 10:32:44;;;;;;;2.83;1.00;;;20.00;52.70;;;;;;5063983;28;20032;-63
2020/12/26 10:35:10;;;;;;;2.90;0.77;;;20.00;52.60;;;;;;5043563;28;20025;-62
2020/12/26 10:37:35;;;;;;;1.27;0.73;;;20.00;52.70;;;;;;5064452;28;20031;-63
2020/12/26 10:40:01;;;;;;;2.38;0.80;;;20.00;52.70;;;;;;5066613;28;20038;-63
2020/12/26 10:42:26;;;;;;;5.22;0.90;;;20.00;52.70;;;;;;5065703;28;20020;-64
2020/12/26 10:44:52;;;;;;;1.48;0.70;;;20.00;52.80;;;;;;5047571;28;20029;-63
2020/12/26 10:47:18;;;;;;;1.95;0.90;;;20.00;52.70;;;;;;5064388;28;20025;-63
2020/12/26 10:49:43;;;;;;;0.85;0.70;;;20.00;52.70;;;;;;5041017;28;20119;-63
2020/12/26 10:52:09;;;;;;;1.70;0.80;;;20.00;52.70;;;;;;5059577;28;20035;-64
2020/12/26 10:54:35;;;;;;;1.35;0.75;;;20.10;52.80;;;;;;5066952;28;20356;-63
2020/12/26 10:57:00;;;;;;;1.65;0.80;;;20.10;52.80;;;;;;5074261;28;20372;-65
2020/12/26 10:59:26;;;;;;;2.53;0.60;;;20.10;52.80;;;;;;5066435;28;20094;-63
2020/12/26 11:01:52;;;;;;;1.20;0.60;;;20.10;52.80;;;;;;5058683;28;20037;-65
2020/12/26 11:04:17;;;;;;;0.88;0.57;;;20.10;52.80;;;;;;5066042;28;20102;-64
2020/12/26 11:06:48;;;;;;;1.42;0.80;;;20.10;52.80;;;;;;5066590;28;20039;-63
2020/12/26 11:09:14;;;;;;;1.80;0.88;;;20.10;52.80;;;;;;5066573;28;20041;-62
2020/12/26 11:11:48;;;;;;;2.05;0.82;;;20.10;52.80;;;;;;5066898;28;20037;-63
2020/12/26 11:14:15;;;;;;;2.78;0.82;;;20.10;52.80;;;;;;5064789;28;20024;-63
2020/12/26 11:16:40;;;;;;;2.10;0.80;;;20.10;52.80;;;;;;5065881;28;20099;-63
2020/12/26 11:19:06;;;;;;;1.52;0.70;;;20.10;52.80;;;;;;5069656;28;20112;-63
2020/12/26 11:21:32;;;;;;;3.00;0.80;;;20.10;52.80;;;;;;5070539;28;20040;-63
2020/12/26 11:23:57;;;;;;;1.65;0.80;;;20.10;52.80;;;;;;5070103;28;20028;-63
2020/12/26 11:26:23;;;;;;;1.98;0.90;;;20.10;52.80;;;;;;5069204;28;20470;-63
2020/12/26 11:28:48;;;;;;;1.63;0.80;;;20.10;52.80;;;;;;5077204;28;20050;-63
2020/12/26 11:31:21;;;;;;;2.70;1.00;;;20.20;52.80;;;;;;5089818;28;20194;-63
2020/12/26 11:33:47;;;;;;;1.92;0.90;;;20.10;52.80;;;;;;5071645;28;20063;-62
2020/12/26 11:36:25;;;;;;;2.50;1.13;;;20.10;52.80;;;;;;5089510;28;20101;-63
2020/12/26 11:38:50;;;;;;;2.53;0.80;;;20.20;52.80;;;;;;5090419;28;20054;-63
2020/12/26 11:41:18;;;;;;;1.13;0.70;;;20.20;52.90;;;;;;5088442;28;20028;-62
2020/12/26 11:43:43;;;;;;;1.27;0.80;;;20.20;52.80;;;;;;5090485;28;20543;-63
2020/12/26 11:46:10;;;;;;;1.50;0.70;;;20.20;52.80;;;;;;5068316;28;20143;-64
2020/12/26 11:48:36;;;;;;;2.55;0.90;;;20.20;52.80;;;;;;5081324;28;20042;-62
2020/12/26 11:51:03;;;;;;;2.03;0.85;;;20.20;52.80;;;;;;5072431;28;20051;-63
2020/12/26 11:53:29;;;;;;;0.90;0.70;;;20.30;52.90;;;;;;5071771;28;20374;-63
2020/12/26 11:55:54;;;;;;;1.40;0.73;;;20.30;52.90;;;;;;5085720;28;20019;-64
2020/12/26 11:58:23;;;;;;;1.88;0.80;;;20.30;52.90;;;;;;5088452;28;20079;-62
2020/12/26 12:00:55;;;;;;;2.85;0.90;;;20.30;52.90;;;;;;5089522;28;20032;-63
2020/12/26 12:03:21;;;;;;;1.77;0.80;;;20.30;52.80;;;;;;5087665;28;20115;-65
2020/12/26 12:05:47;;;;;;;1.67;0.80;;;20.30;52.90;;;;;;5087510;28;20815;-63
2020/12/26 12:08:14;;;;;;;1.27;0.80;;;20.30;52.90;;;;;;5067030;28;20030;-62
2020/12/26 12:10:40;;;;;;;1.17;0.70;;;20.30;52.80;;;;;;5084822;28;21902;-63
2020/12/26 12:13:07;;;;;;;3.03;0.80;;;20.30;52.80;;;;;;5071635;28;20054;-62
2020/12/26 12:15:33;;;;;;;1.70;0.80;;;20.30;52.80;;;;;;5089181;28;20656;-65
2020/12/26 12:17:59;;;;;;;1.42;0.80;;;20.30;52.80;;;;;;5083379;28;20027;-62
2020/12/26 12:20:29;;;;;;;1.15;0.77;;;20.40;52.90;;;;;;5089349;28;20042;-63
2020/12/26 12:22:55;;;;;;;;;;;20.40;52.90;;;;;;5089282;28;20032;-63
2020/12/26 12:25:21;;;;;;;1.95;0.90;;;20.40;52.90;;;;;;5070516;28;20267;-63
2020/12/26 12:27:47;;;;;;;1.85;0.73;;;20.40;52.80;;;;;;5088487;28;20131;-62
2020/12/26 12:30:13;;;;;;;1.63;0.80;;;20.40;52.80;;;;;;5086721;28;20039;-64
2020/12/26 12:32:39;;;;;;;1.63;0.90;;;20.40;52.80;;;;;;5087129;28;20071;-63
2020/12/26 12:35:05;;;;;;;1.10;0.70;;;20.40;53.30;;;;;;5087730;28;20067;-63
2020/12/26 12:37:31;;;;;;;2.22;0.93;;;20.40;52.70;;;;;;5088051;28;20363;-63
2020/12/26 12:39:56;;;;;;;1.33;0.70;;;20.40;52.70;;;;;;5085920;28;20103;-63
2020/12/26 12:42:22;;;;;;;1.63;0.80;;;20.40;52.70;;;;;;5082122;28;20020;-63
2020/12/26 12:44:47;;;;;;;1.90;0.90;;;20.50;52.80;;;;;;5087231;28;20078;-64
2020/12/26 12:47:13;;;;;;;1.42;0.80;;;20.40;52.70;;;;;;5086900;28;20032;-62
2020/12/26 12:49:39;;;;;;;1.85;0.88;;;20.40;52.70;;;;;;5089571;28;20028;-62
2020/12/26 12:52:05;;;;;;;1.88;0.80;;;20.40;52.70;;;;;;5089025;28;20112;-62
2020/12/26 12:54:31;;;;;;;2.40;0.70;;;20.50;52.70;;;;;;5088124;28;20103;-61